sensor_id;sensor_type;location;lat;lon;timestamp;P1;durP1;ratioP1;P2;durP2;ratioP2
3781;SDS011;6881;49.962;7.718;2023-07-13T00:00:52;3.40;;;2.43;;
3781;SDS011;6881;49.962;7.718;2023-07-13T00:03:17;3.60;;;2.60;;
3781;SDS011;6881;49.962;7.718;2023-07-13T00:05:43;3.03;;;2.80;;
3781;SDS011;6881;49.962;7.718;2023-07-13T00:08:08;5.23;;;3.63;;
3781;SDS011;6881;49.962;7.718;2023-07-13T00:10:33;3.33;;;2.53;;
3781;SDS011;6881;49.962;7.718;2023-07-13T00:12:59;2.53;;;2.33;;
3781;SDS011;6881;49.962;7.718;2023-07-13T00:15:25;2.53;;;2.33;;
3781;SDS011;6881;49.962;7.718;2023-07-13T00:17:52;4.70;;;2.10;;
3781;SDS011;6881;49.962;7.718;2023-07-13T00:20:19;3.80;;;2.80;;
3781;SDS011;6881;49.962;7.718;2023-07-13T00:22:47;2.77;;;2.27;;
3781;SDS011;6881;49.962;7.718;2023-07-13T00:25:12;3.17;;;2.87;;
3781;SDS011;6881;49.962;7.718;2023-07-13T00:27:38;3.80;;;2.57;;
3781;SDS011;6881;49.962;7.718;2023-07-13T00:30:03;3.70;;;2.43;;
3781;SDS011;6881;49.962;7.718;2023-07-13T00:32:30;5.37;;;2.47;;
3781;SDS011;6881;49.962;7.718;2023-07-13T00:34:55;3.70;;;2.03;;
3781;SDS011;6881;49.962;7.718;2023-07-13T00:37:22;5.10;;;2.80;;
3781;SDS011;6881;49.962;7.718;2023-07-13T00:39:47;2.30;;;2.03;;
3781;SDS011;6881;49.962;7.718;2023-07-13T00:42:13;2.90;;;2.20;;
3781;SDS011;6881;49.962;7.718;2023-07-13T00:44:39;4.70;;;2.37;;
3781;SDS011;6881;49.962;7.718;2023-07-13T00:47:05;3.40;;;1.90;;
3781;SDS011;6881;49.962;7.718;2023-07-13T00:49:30;7.20;;;2.57;;
3781;SDS011;6881;49.962;7.718;2023-07-13T00:51:58;2.90;;;2.10;;
3781;SDS011;6881;49.962;7.718;2023-07-13T00:54:28;3.70;;;2.23;;
3781;SDS011;6881;49.962;7.718;2023-07-13T00:56:57;3.17;;;2.17;;
3781;SDS011;6881;49.962;7.718;2023-07-13T00:59:23;4.73;;;2.50;;
3781;SDS011;6881;49.962;7.718;2023-07-13T01:01:49;5.33;;;2.50;;
3781;SDS011;6881;49.962;7.718;2023-07-13T01:04:14;2.60;;;2.40;;
3781;SDS011;6881;49.962;7.718;2023-07-13T01:06:41;5.60;;;2.67;;
3781;SDS011;6881;49.962;7.718;2023-07-13T01:09:09;3.00;;;2.40;;
3781;SDS011;6881;49.962;7.718;2023-07-13T01:11:35;3.10;;;2.57;;
3781;SDS011;6881;49.962;7.718;2023-07-13T01:14:01;3.53;;;2.23;;
3781;SDS011;6881;49.962;7.718;2023-07-13T01:16:28;2.83;;;2.40;;
3781;SDS011;6881;49.962;7.718;2023-07-13T01:18:55;6.90;;;2.20;;
3781;SDS011;6881;49.962;7.718;2023-07-13T01:21:24;3.90;;;2.30;;
3781;SDS011;6881;49.962;7.718;2023-07-13T01:23:50;3.73;;;2.50;;
3781;SDS011;6881;49.962;7.718;2023-07-13T01:26:15;7.30;;;2.83;;
3781;SDS011;6881;49.962;7.718;2023-07-13T01:28:41;2.30;;;2.10;;
3781;SDS011;6881;49.962;7.718;2023-07-13T01:31:06;3.30;;;2.33;;
3781;SDS011;6881;49.962;7.718;2023-07-13T01:33:33;2.87;;;2.50;;
3781;SDS011;6881;49.962;7.718;2023-07-13T01:35:59;2.67;;;2.47;;
3781;SDS011;6881;49.962;7.718;2023-07-13T01:38:25;3.67;;;3.37;;
3781;SDS011;6881;49.962;7.718;2023-07-13T01:40:51;3.17;;;2.33;;
3781;SDS011;6881;49.962;7.718;2023-07-13T01:43:17;2.50;;;2.30;;
3781;SDS011;6881;49.962;7.718;2023-07-13T01:45:43;2.70;;;2.07;;
3781;SDS011;6881;49.962;7.718;2023-07-13T01:48:09;5.10;;;2.90;;
3781;SDS011;6881;49.962;7.718;2023-07-13T01:50:34;4.23;;;2.93;;
3781;SDS011;6881;49.962;7.718;2023-07-13T01:53:00;3.07;;;2.80;;
3781;SDS011;6881;49.962;7.718;2023-07-13T01:55:27;3.20;;;2.37;;
3781;SDS011;6881;49.962;7.718;2023-07-13T01:57:53;3.47;;;2.30;;
3781;SDS011;6881;49.962;7.718;2023-07-13T02:00:18;5.13;;;2.30;;
3781;SDS011;6881;49.962;7.718;2023-07-13T02:02:44;6.13;;;2.17;;
3781;SDS011;6881;49.962;7.718;2023-07-13T02:05:09;2.50;;;1.97;;
3781;SDS011;6881;49.962;7.718;2023-07-13T02:07:35;3.50;;;2.63;;
3781;SDS011;6881;49.962;7.718;2023-07-13T02:10:00;2.53;;;2.33;;
3781;SDS011;6881;49.962;7.718;2023-07-13T02:12:26;2.87;;;2.43;;
3781;SDS011;6881;49.962;7.718;2023-07-13T02:14:51;3.27;;;2.33;;
3781;SDS011;6881;49.962;7.718;2023-07-13T02:17:16;3.70;;;3.00;;
3781;SDS011;6881;49.962;7.718;2023-07-13T02:19:42;2.73;;;2.53;;
3781;SDS011;6881;49.962;7.718;2023-07-13T02:22:07;2.53;;;1.93;;
3781;SDS011;6881;49.962;7.718;2023-07-13T02:24:32;3.77;;;2.40;;
3781;SDS011;6881;49.962;7.718;2023-07-13T02:26:57;2.60;;;2.40;;
3781;SDS011;6881;49.962;7.718;2023-07-13T02:29:23;2.00;;;1.80;;
3781;SDS011;6881;49.962;7.718;2023-07-13T02:31:48;2.73;;;2.20;;
3781;SDS011;6881;49.962;7.718;2023-07-13T02:34:13;2.97;;;2.20;;
3781;SDS011;6881;49.962;7.718;2023-07-13T02:36:39;3.13;;;1.73;;
3781;SDS011;6881;49.962;7.718;2023-07-13T02:39:04;2.10;;;1.90;;
3781;SDS011;6881;49.962;7.718;2023-07-13T02:41:30;2.67;;;2.00;;
3781;SDS011;6881;49.962;7.718;2023-07-13T02:43:57;2.47;;;2.03;;
3781;SDS011;6881;49.962;7.718;2023-07-13T02:46:28;4.80;;;2.27;;
3781;SDS011;6881;49.962;7.718;2023-07-13T02:48:53;5.40;;;2.60;;
3781;SDS011;6881;49.962;7.718;2023-07-13T02:51:19;2.40;;;2.10;;
3781;SDS011;6881;49.962;7.718;2023-07-13T02:53:44;4.73;;;2.30;;
3781;SDS011;6881;49.962;7.718;2023-07-13T02:56:09;3.70;;;2.50;;
3781;SDS011;6881;49.962;7.718;2023-07-13T02:58:35;3.53;;;2.20;;
3781;SDS011;6881;49.962;7.718;2023-07-13T03:01:05;3.47;;;2.07;;
3781;SDS011;6881;49.962;7.718;2023-07-13T03:03:31;3.13;;;2.30;;
3781;SDS011;6881;49.962;7.718;2023-07-13T03:06:00;3.03;;;2.03;;
3781;SDS011;6881;49.962;7.718;2023-07-13T03:08:27;2.33;;;2.13;;
3781;SDS011;6881;49.962;7.718;2023-07-13T03:11:02;2.60;;;1.80;;
3781;SDS011;6881;49.962;7.718;2023-07-13T03:13:30;2.70;;;1.70;;
3781;SDS011;6881;49.962;7.718;2023-07-13T03:15:55;2.37;;;2.00;;
3781;SDS011;6881;49.962;7.718;2023-07-13T03:18:20;2.37;;;1.80;;
3781;SDS011;6881;49.962;7.718;2023-07-13T03:20:46;2.00;;;1.63;;
3781;SDS011;6881;49.962;7.718;2023-07-13T03:23:11;2.57;;;2.00;;
3781;SDS011;6881;49.962;7.718;2023-07-13T03:25:36;2.37;;;1.70;;
3781;SDS011;6881;49.962;7.718;2023-07-13T03:28:02;2.20;;;1.33;;
3781;SDS011;6881;49.962;7.718;2023-07-13T03:30:27;2.73;;;1.90;;
3781;SDS011;6881;49.962;7.718;2023-07-13T03:32:52;5.60;;;2.00;;
3781;SDS011;6881;49.962;7.718;2023-07-13T03:35:18;2.20;;;1.47;;
3781;SDS011;6881;49.962;7.718;2023-07-13T03:37:43;2.87;;;1.50;;
3781;SDS011;6881;49.962;7.718;2023-07-13T03:40:09;3.70;;;1.53;;
3781;SDS011;6881;49.962;7.718;2023-07-13T03:42:35;3.70;;;1.90;;
3781;SDS011;6881;49.962;7.718;2023-07-13T03:45:00;3.00;;;1.50;;
3781;SDS011;6881;49.962;7.718;2023-07-13T03:47:26;2.30;;;1.60;;
3781;SDS011;6881;49.962;7.718;2023-07-13T03:49:51;2.77;;;1.60;;
3781;SDS011;6881;49.962;7.718;2023-07-13T03:52:16;2.60;;;1.63;;
3781;SDS011;6881;49.962;7.718;2023-07-13T03:54:41;1.70;;;1.60;;
3781;SDS011;6881;49.962;7.718;2023-07-13T03:57:07;4.17;;;1.80;;
3781;SDS011;6881;49.962;7.718;2023-07-13T03:59:33;5.17;;;2.00;;
3781;SDS011;6881;49.962;7.718;2023-07-13T04:01:58;3.70;;;2.10;;
3781;SDS011;6881;49.962;7.718;2023-07-13T04:04:24;3.67;;;1.70;;
3781;SDS011;6881;49.962;7.718;2023-07-13T04:06:49;3.57;;;1.47;;
3781;SDS011;6881;49.962;7.718;2023-07-13T04:09:17;3.17;;;1.83;;
3781;SDS011;6881;49.962;7.718;2023-07-13T04:11:43;1.70;;;1.43;;
3781;SDS011;6881;49.962;7.718;2023-07-13T04:14:09;3.87;;;1.80;;
3781;SDS011;6881;49.962;7.718;2023-07-13T04:16:34;3.10;;;1.43;;
3781;SDS011;6881;49.962;7.718;2023-07-13T04:18:59;2.23;;;1.70;;
3781;SDS011;6881;49.962;7.718;2023-07-13T04:24:00;2.57;;;1.57;;
3781;SDS011;6881;49.962;7.718;2023-07-13T04:26:25;1.70;;;1.60;;
3781;SDS011;6881;49.962;7.718;2023-07-13T04:28:50;2.10;;;1.87;;
3781;SDS011;6881;49.962;7.718;2023-07-13T04:31:16;2.97;;;1.60;;
3781;SDS011;6881;49.962;7.718;2023-07-13T04:33:42;2.60;;;1.63;;
3781;SDS011;6881;49.962;7.718;2023-07-13T04:36:08;2.53;;;1.57;;
3781;SDS011;6881;49.962;7.718;2023-07-13T04:38:34;4.50;;;2.60;;
3781;SDS011;6881;49.962;7.718;2023-07-13T04:41:00;2.17;;;1.83;;
3781;SDS011;6881;49.962;7.718;2023-07-13T04:43:28;1.67;;;1.40;;
3781;SDS011;6881;49.962;7.718;2023-07-13T04:45:54;3.57;;;1.87;;
3781;SDS011;6881;49.962;7.718;2023-07-13T04:48:19;2.27;;;2.07;;
3781;SDS011;6881;49.962;7.718;2023-07-13T04:50:45;1.87;;;1.67;;
3781;SDS011;6881;49.962;7.718;2023-07-13T04:53:11;2.37;;;1.70;;
3781;SDS011;6881;49.962;7.718;2023-07-13T04:55:37;3.70;;;1.67;;
3781;SDS011;6881;49.962;7.718;2023-07-13T04:58:02;2.10;;;1.20;;
3781;SDS011;6881;49.962;7.718;2023-07-13T05:00:28;2.97;;;1.33;;
3781;SDS011;6881;49.962;7.718;2023-07-13T05:02:54;2.97;;;1.70;;
3781;SDS011;6881;49.962;7.718;2023-07-13T05:05:20;1.40;;;1.30;;
3781;SDS011;6881;49.962;7.718;2023-07-13T05:07:45;3.33;;;1.80;;
3781;SDS011;6881;49.962;7.718;2023-07-13T05:10:11;3.20;;;1.77;;
3781;SDS011;6881;49.962;7.718;2023-07-13T05:12:36;3.07;;;1.73;;
3781;SDS011;6881;49.962;7.718;2023-07-13T05:15:01;1.50;;;1.30;;
3781;SDS011;6881;49.962;7.718;2023-07-13T05:17:27;1.93;;;1.67;;
3781;SDS011;6881;49.962;7.718;2023-07-13T05:19:53;3.20;;;1.37;;
3781;SDS011;6881;49.962;7.718;2023-07-13T05:22:18;1.67;;;1.30;;
3781;SDS011;6881;49.962;7.718;2023-07-13T05:24:43;3.43;;;1.30;;
3781;SDS011;6881;49.962;7.718;2023-07-13T05:27:09;5.00;;;1.80;;
3781;SDS011;6881;49.962;7.718;2023-07-13T05:29:34;2.43;;;1.80;;
3781;SDS011;6881;49.962;7.718;2023-07-13T05:31:59;2.77;;;1.77;;
3781;SDS011;6881;49.962;7.718;2023-07-13T05:34:25;5.07;;;1.40;;
3781;SDS011;6881;49.962;7.718;2023-07-13T05:36:51;5.43;;;1.63;;
3781;SDS011;6881;49.962;7.718;2023-07-13T05:39:17;3.50;;;1.40;;
3781;SDS011;6881;49.962;7.718;2023-07-13T05:41:42;3.03;;;1.60;;
3781;SDS011;6881;49.962;7.718;2023-07-13T05:44:07;2.97;;;1.90;;
3781;SDS011;6881;49.962;7.718;2023-07-13T05:46:33;3.17;;;1.90;;
3781;SDS011;6881;49.962;7.718;2023-07-13T05:48:58;3.57;;;1.80;;
3781;SDS011;6881;49.962;7.718;2023-07-13T05:51:24;4.27;;;2.03;;
3781;SDS011;6881;49.962;7.718;2023-07-13T05:53:49;4.80;;;1.93;;
3781;SDS011;6881;49.962;7.718;2023-07-13T05:56:14;3.40;;;1.60;;
3781;SDS011;6881;49.962;7.718;2023-07-13T05:58:40;3.50;;;1.80;;
3781;SDS011;6881;49.962;7.718;2023-07-13T06:01:06;7.10;;;1.60;;
3781;SDS011;6881;49.962;7.718;2023-07-13T06:03:33;9.20;;;1.63;;
3781;SDS011;6881;49.962;7.718;2023-07-13T06:05:59;5.60;;;1.90;;
3781;SDS011;6881;49.962;7.718;2023-07-13T06:08:27;4.27;;;1.67;;
3781;SDS011;6881;49.962;7.718;2023-07-13T06:10:53;5.00;;;2.53;;
3781;SDS011;6881;49.962;7.718;2023-07-13T06:13:18;4.90;;;1.70;;
3781;SDS011;6881;49.962;7.718;2023-07-13T06:15:47;5.30;;;2.33;;
3781;SDS011;6881;49.962;7.718;2023-07-13T06:18:14;9.83;;;3.00;;
3781;SDS011;6881;49.962;7.718;2023-07-13T06:20:39;2.83;;;2.07;;
3781;SDS011;6881;49.962;7.718;2023-07-13T06:23:04;3.93;;;1.90;;
3781;SDS011;6881;49.962;7.718;2023-07-13T06:25:30;1.70;;;1.40;;
3781;SDS011;6881;49.962;7.718;2023-07-13T06:27:55;2.93;;;1.53;;
3781;SDS011;6881;49.962;7.718;2023-07-13T06:30:21;2.40;;;1.83;;
3781;SDS011;6881;49.962;7.718;2023-07-13T06:32:46;3.63;;;1.43;;
3781;SDS011;6881;49.962;7.718;2023-07-13T06:35:11;4.30;;;1.30;;
3781;SDS011;6881;49.962;7.718;2023-07-13T06:37:38;2.70;;;1.53;;
3781;SDS011;6881;49.962;7.718;2023-07-13T06:40:04;3.23;;;1.43;;
3781;SDS011;6881;49.962;7.718;2023-07-13T06:42:29;1.50;;;1.10;;
3781;SDS011;6881;49.962;7.718;2023-07-13T06:44:55;2.73;;;1.40;;
3781;SDS011;6881;49.962;7.718;2023-07-13T06:47:20;1.67;;;1.47;;
3781;SDS011;6881;49.962;7.718;2023-07-13T06:49:45;1.43;;;1.17;;
3781;SDS011;6881;49.962;7.718;2023-07-13T06:52:10;2.20;;;1.30;;
3781;SDS011;6881;49.962;7.718;2023-07-13T06:54:36;2.30;;;1.00;;
3781;SDS011;6881;49.962;7.718;2023-07-13T06:57:01;1.50;;;1.13;;
3781;SDS011;6881;49.962;7.718;2023-07-13T06:59:26;4.67;;;1.80;;
3781;SDS011;6881;49.962;7.718;2023-07-13T07:01:52;2.90;;;1.43;;
3781;SDS011;6881;49.962;7.718;2023-07-13T07:04:17;2.27;;;1.13;;
3781;SDS011;6881;49.962;7.718;2023-07-13T07:06:42;2.80;;;1.23;;
3781;SDS011;6881;49.962;7.718;2023-07-13T07:09:07;2.10;;;1.00;;
3781;SDS011;6881;49.962;7.718;2023-07-13T07:11:34;2.43;;;1.13;;
3781;SDS011;6881;49.962;7.718;2023-07-13T07:13:59;2.47;;;1.50;;
3781;SDS011;6881;49.962;7.718;2023-07-13T07:16:24;4.80;;;1.57;;
3781;SDS011;6881;49.962;7.718;2023-07-13T07:18:50;2.83;;;2.30;;
3781;SDS011;6881;49.962;7.718;2023-07-13T07:21:15;2.20;;;1.30;;
3781;SDS011;6881;49.962;7.718;2023-07-13T07:23:41;3.70;;;1.10;;
3781;SDS011;6881;49.962;7.718;2023-07-13T07:26:07;3.43;;;1.10;;
3781;SDS011;6881;49.962;7.718;2023-07-13T07:28:34;4.30;;;1.67;;
3781;SDS011;6881;49.962;7.718;2023-07-13T07:31:00;2.30;;;1.10;;
3781;SDS011;6881;49.962;7.718;2023-07-13T07:33:25;2.80;;;1.20;;
3781;SDS011;6881;49.962;7.718;2023-07-13T07:35:51;4.07;;;1.20;;
3781;SDS011;6881;49.962;7.718;2023-07-13T07:38:16;2.23;;;1.33;;
3781;SDS011;6881;49.962;7.718;2023-07-13T07:40:42;4.50;;;1.43;;
3781;SDS011;6881;49.962;7.718;2023-07-13T07:43:08;4.20;;;1.90;;
3781;SDS011;6881;49.962;7.718;2023-07-13T07:45:34;2.50;;;1.20;;
3781;SDS011;6881;49.962;7.718;2023-07-13T07:47:59;1.70;;;1.20;;
3781;SDS011;6881;49.962;7.718;2023-07-13T07:50:25;5.70;;;1.40;;
3781;SDS011;6881;49.962;7.718;2023-07-13T07:52:51;2.00;;;1.20;;
3781;SDS011;6881;49.962;7.718;2023-07-13T07:55:16;3.10;;;1.13;;
3781;SDS011;6881;49.962;7.718;2023-07-13T07:57:41;4.80;;;1.60;;
3781;SDS011;6881;49.962;7.718;2023-07-13T08:00:07;2.07;;;1.27;;
3781;SDS011;6881;49.962;7.718;2023-07-13T08:02:33;2.73;;;1.10;;
3781;SDS011;6881;49.962;7.718;2023-07-13T08:04:58;2.83;;;1.40;;
3781;SDS011;6881;49.962;7.718;2023-07-13T08:07:23;3.57;;;1.47;;
3781;SDS011;6881;49.962;7.718;2023-07-13T08:09:51;2.20;;;1.40;;
3781;SDS011;6881;49.962;7.718;2023-07-13T08:12:17;1.70;;;1.20;;
3781;SDS011;6881;49.962;7.718;2023-07-13T08:14:42;1.77;;;0.80;;
3781;SDS011;6881;49.962;7.718;2023-07-13T08:17:08;3.17;;;1.20;;
3781;SDS011;6881;49.962;7.718;2023-07-13T08:19:33;2.40;;;1.13;;
3781;SDS011;6881;49.962;7.718;2023-07-13T08:21:58;2.03;;;1.07;;
3781;SDS011;6881;49.962;7.718;2023-07-13T08:24:25;2.03;;;1.20;;
3781;SDS011;6881;49.962;7.718;2023-07-13T08:26:50;2.60;;;1.10;;
3781;SDS011;6881;49.962;7.718;2023-07-13T08:29:17;1.47;;;1.10;;
3781;SDS011;6881;49.962;7.718;2023-07-13T08:31:42;1.90;;;1.30;;
3781;SDS011;6881;49.962;7.718;2023-07-13T08:34:07;1.50;;;1.13;;
3781;SDS011;6881;49.962;7.718;2023-07-13T08:36:33;1.70;;;1.03;;
3781;SDS011;6881;49.962;7.718;2023-07-13T08:38:58;3.03;;;0.80;;
3781;SDS011;6881;49.962;7.718;2023-07-13T08:41:23;1.30;;;0.70;;
3781;SDS011;6881;49.962;7.718;2023-07-13T08:43:50;1.20;;;0.97;;
3781;SDS011;6881;49.962;7.718;2023-07-13T08:46:28;2.80;;;1.33;;
3781;SDS011;6881;49.962;7.718;2023-07-13T08:49:03;2.80;;;1.13;;
3781;SDS011;6881;49.962;7.718;2023-07-13T08:54:20;2.90;;;1.10;;
3781;SDS011;6881;49.962;7.718;2023-07-13T08:56:49;1.00;;;0.90;;
3781;SDS011;6881;49.962;7.718;2023-07-13T08:59:18;2.17;;;1.37;;
3781;SDS011;6881;49.962;7.718;2023-07-13T09:10:14;2.53;;;1.03;;
3781;SDS011;6881;49.962;7.718;2023-07-13T09:15:23;3.10;;;1.00;;
3781;SDS011;6881;49.962;7.718;2023-07-13T09:17:51;2.50;;;1.23;;
3781;SDS011;6881;49.962;7.718;2023-07-13T09:20:28;2.43;;;1.27;;
3781;SDS011;6881;49.962;7.718;2023-07-13T09:22:58;1.87;;;1.00;;
3781;SDS011;6881;49.962;7.718;2023-07-13T09:25:34;1.77;;;0.90;;
3781;SDS011;6881;49.962;7.718;2023-07-13T09:28:20;3.03;;;1.37;;
3781;SDS011;6881;49.962;7.718;2023-07-13T09:31:03;2.40;;;1.30;;
3781;SDS011;6881;49.962;7.718;2023-07-13T09:33:31;3.30;;;1.50;;
3781;SDS011;6881;49.962;7.718;2023-07-13T09:35:57;4.87;;;1.30;;
3781;SDS011;6881;49.962;7.718;2023-07-13T09:38:24;1.60;;;1.07;;
3781;SDS011;6881;49.962;7.718;2023-07-13T09:44:10;2.57;;;1.23;;
3781;SDS011;6881;49.962;7.718;2023-07-13T09:46:37;2.57;;;1.17;;
3781;SDS011;6881;49.962;7.718;2023-07-13T09:49:03;3.10;;;1.60;;
3781;SDS011;6881;49.962;7.718;2023-07-13T09:51:29;1.90;;;1.07;;
3781;SDS011;6881;49.962;7.718;2023-07-13T09:53:54;1.93;;;1.33;;
3781;SDS011;6881;49.962;7.718;2023-07-13T09:56:23;2.20;;;1.07;;
3781;SDS011;6881;49.962;7.718;2023-07-13T09:58:52;2.70;;;1.27;;
3781;SDS011;6881;49.962;7.718;2023-07-13T10:01:30;2.27;;;1.37;;
3781;SDS011;6881;49.962;7.718;2023-07-13T10:04:12;2.37;;;1.20;;
3781;SDS011;6881;49.962;7.718;2023-07-13T10:06:38;2.03;;;1.10;;
3781;SDS011;6881;49.962;7.718;2023-07-13T10:09:08;1.90;;;1.23;;
3781;SDS011;6881;49.962;7.718;2023-07-13T10:11:34;3.17;;;1.37;;
3781;SDS011;6881;49.962;7.718;2023-07-13T10:16:31;3.13;;;1.17;;
3781;SDS011;6881;49.962;7.718;2023-07-13T10:18:59;1.53;;;0.97;;
3781;SDS011;6881;49.962;7.718;2023-07-13T10:21:38;4.77;;;1.17;;
3781;SDS011;6881;49.962;7.718;2023-07-13T10:24:21;1.60;;;1.20;;
3781;SDS011;6881;49.962;7.718;2023-07-13T10:26:51;1.70;;;1.20;;
3781;SDS011;6881;49.962;7.718;2023-07-13T10:29:21;2.40;;;1.23;;
3781;SDS011;6881;49.962;7.718;2023-07-13T10:31:47;2.77;;;1.60;;
3781;SDS011;6881;49.962;7.718;2023-07-13T10:34:12;2.43;;;1.20;;
3781;SDS011;6881;49.962;7.718;2023-07-13T10:39:23;3.80;;;0.93;;
3781;SDS011;6881;49.962;7.718;2023-07-13T10:41:55;1.30;;;1.00;;
3781;SDS011;6881;49.962;7.718;2023-07-13T10:44:29;1.80;;;1.10;;
3781;SDS011;6881;49.962;7.718;2023-07-13T10:46:57;1.53;;;0.83;;
3781;SDS011;6881;49.962;7.718;2023-07-13T10:49:24;3.33;;;1.20;;
3781;SDS011;6881;49.962;7.718;2023-07-13T10:51:52;2.27;;;1.37;;
3781;SDS011;6881;49.962;7.718;2023-07-13T10:54:22;1.83;;;1.17;;
3781;SDS011;6881;49.962;7.718;2023-07-13T10:59:43;2.50;;;1.20;;
3781;SDS011;6881;49.962;7.718;2023-07-13T11:02:20;2.23;;;1.40;;
3781;SDS011;6881;49.962;7.718;2023-07-13T11:04:48;2.17;;;1.27;;
3781;SDS011;6881;49.962;7.718;2023-07-13T11:07:22;3.03;;;1.27;;
3781;SDS011;6881;49.962;7.718;2023-07-13T11:09:54;2.33;;;1.27;;
3781;SDS011;6881;49.962;7.718;2023-07-13T11:19:53;3.30;;;1.20;;
3781;SDS011;6881;49.962;7.718;2023-07-13T11:22:22;2.47;;;1.20;;
3781;SDS011;6881;49.962;7.718;2023-07-13T11:27:45;2.43;;;1.47;;
3781;SDS011;6881;49.962;7.718;2023-07-13T11:38:22;2.00;;;1.20;;
3781;SDS011;6881;49.962;7.718;2023-07-13T11:40:53;3.23;;;1.23;;
3781;SDS011;6881;49.962;7.718;2023-07-13T11:43:19;2.00;;;1.33;;
3781;SDS011;6881;49.962;7.718;2023-07-13T11:45:44;1.10;;;0.90;;
3781;SDS011;6881;49.962;7.718;2023-07-13T11:48:20;2.50;;;1.23;;
3781;SDS011;6881;49.962;7.718;2023-07-13T11:50:55;1.40;;;1.10;;
3781;SDS011;6881;49.962;7.718;2023-07-13T11:53:22;2.10;;;1.53;;
3781;SDS011;6881;49.962;7.718;2023-07-13T11:55:51;2.20;;;1.53;;
3781;SDS011;6881;49.962;7.718;2023-07-13T11:58:17;3.13;;;1.63;;
3781;SDS011;6881;49.962;7.718;2023-07-13T12:00:46;4.20;;;1.40;;
3781;SDS011;6881;49.962;7.718;2023-07-13T12:03:19;3.07;;;1.40;;
3781;SDS011;6881;49.962;7.718;2023-07-13T12:06:03;1.50;;;1.00;;
3781;SDS011;6881;49.962;7.718;2023-07-13T12:08:31;2.43;;;1.37;;
3781;SDS011;6881;49.962;7.718;2023-07-13T12:10:58;3.23;;;1.60;;
3781;SDS011;6881;49.962;7.718;2023-07-13T12:13:24;1.93;;;1.20;;
3781;SDS011;6881;49.962;7.718;2023-07-13T12:15:53;2.73;;;1.43;;
3781;SDS011;6881;49.962;7.718;2023-07-13T12:18:20;3.23;;;1.27;;
3781;SDS011;6881;49.962;7.718;2023-07-13T12:20:50;1.23;;;0.90;;
3781;SDS011;6881;49.962;7.718;2023-07-13T12:23:34;1.93;;;1.03;;
3781;SDS011;6881;49.962;7.718;2023-07-13T12:26:04;1.60;;;1.17;;
3781;SDS011;6881;49.962;7.718;2023-07-13T12:28:32;1.70;;;0.90;;
3781;SDS011;6881;49.962;7.718;2023-07-13T12:31:03;2.37;;;1.50;;
3781;SDS011;6881;49.962;7.718;2023-07-13T12:33:30;3.43;;;1.03;;
3781;SDS011;6881;49.962;7.718;2023-07-13T12:35:57;1.50;;;1.17;;
3781;SDS011;6881;49.962;7.718;2023-07-13T12:38:26;1.67;;;1.40;;
3781;SDS011;6881;49.962;7.718;2023-07-13T12:40:52;3.30;;;1.50;;
3781;SDS011;6881;49.962;7.718;2023-07-13T12:43:17;2.10;;;1.00;;
3781;SDS011;6881;49.962;7.718;2023-07-13T12:45:55;3.00;;;1.27;;
3781;SDS011;6881;49.962;7.718;2023-07-13T12:48:24;2.50;;;1.33;;
3781;SDS011;6881;49.962;7.718;2023-07-13T12:50:50;2.60;;;1.40;;
3781;SDS011;6881;49.962;7.718;2023-07-13T12:53:22;3.00;;;1.20;;
3781;SDS011;6881;49.962;7.718;2023-07-13T12:55:54;3.20;;;1.40;;
3781;SDS011;6881;49.962;7.718;2023-07-13T12:58:29;1.63;;;1.13;;
3781;SDS011;6881;49.962;7.718;2023-07-13T13:00:58;1.83;;;1.00;;
3781;SDS011;6881;49.962;7.718;2023-07-13T13:03:45;1.60;;;1.00;;
3781;SDS011;6881;49.962;7.718;2023-07-13T13:08:43;5.27;;;1.57;;
3781;SDS011;6881;49.962;7.718;2023-07-13T13:11:09;1.70;;;1.03;;
3781;SDS011;6881;49.962;7.718;2023-07-13T13:13:35;2.63;;;1.20;;
3781;SDS011;6881;49.962;7.718;2023-07-13T13:18:51;3.07;;;1.47;;
3781;SDS011;6881;49.962;7.718;2023-07-13T13:21:17;2.70;;;1.23;;
3781;SDS011;6881;49.962;7.718;2023-07-13T13:23:44;2.40;;;1.30;;
3781;SDS011;6881;49.962;7.718;2023-07-13T13:26:11;2.40;;;1.17;;
3781;SDS011;6881;49.962;7.718;2023-07-13T13:28:37;2.10;;;1.20;;
3781;SDS011;6881;49.962;7.718;2023-07-13T13:31:03;4.20;;;1.37;;
3781;SDS011;6881;49.962;7.718;2023-07-13T13:33:28;3.17;;;1.60;;
3781;SDS011;6881;49.962;7.718;2023-07-13T13:35:53;2.73;;;1.50;;
3781;SDS011;6881;49.962;7.718;2023-07-13T13:38:25;1.77;;;1.10;;
3781;SDS011;6881;49.962;7.718;2023-07-13T13:40:52;2.90;;;1.17;;
3781;SDS011;6881;49.962;7.718;2023-07-13T13:43:18;2.40;;;1.73;;
3781;SDS011;6881;49.962;7.718;2023-07-13T13:45:51;3.07;;;1.50;;
3781;SDS011;6881;49.962;7.718;2023-07-13T13:48:17;1.50;;;1.17;;
3781;SDS011;6881;49.962;7.718;2023-07-13T13:50:44;3.10;;;1.80;;
3781;SDS011;6881;49.962;7.718;2023-07-13T13:53:10;2.30;;;1.20;;
3781;SDS011;6881;49.962;7.718;2023-07-13T13:55:37;3.20;;;1.57;;
3781;SDS011;6881;49.962;7.718;2023-07-13T13:58:03;2.00;;;1.30;;
3781;SDS011;6881;49.962;7.718;2023-07-13T14:00:28;1.40;;;1.00;;
3781;SDS011;6881;49.962;7.718;2023-07-13T14:02:54;4.33;;;1.30;;
3781;SDS011;6881;49.962;7.718;2023-07-13T14:05:22;2.20;;;1.30;;
3781;SDS011;6881;49.962;7.718;2023-07-13T14:07:49;2.87;;;1.13;;
3781;SDS011;6881;49.962;7.718;2023-07-13T14:10:15;2.33;;;1.60;;
3781;SDS011;6881;49.962;7.718;2023-07-13T14:12:44;2.80;;;1.10;;
3781;SDS011;6881;49.962;7.718;2023-07-13T14:15:14;2.37;;;1.43;;
3781;SDS011;6881;49.962;7.718;2023-07-13T14:17:45;2.47;;;1.53;;
3781;SDS011;6881;49.962;7.718;2023-07-13T14:20:11;1.63;;;1.50;;
3781;SDS011;6881;49.962;7.718;2023-07-13T14:22:37;1.90;;;1.70;;
3781;SDS011;6881;49.962;7.718;2023-07-13T14:25:03;1.67;;;1.03;;
3781;SDS011;6881;49.962;7.718;2023-07-13T14:27:28;2.53;;;1.47;;
3781;SDS011;6881;49.962;7.718;2023-07-13T14:29:54;2.80;;;1.23;;
3781;SDS011;6881;49.962;7.718;2023-07-13T14:32:19;2.70;;;1.30;;
3781;SDS011;6881;49.962;7.718;2023-07-13T14:34:44;1.30;;;1.00;;
3781;SDS011;6881;49.962;7.718;2023-07-13T14:37:12;2.30;;;1.17;;
3781;SDS011;6881;49.962;7.718;2023-07-13T14:39:39;1.50;;;1.10;;
3781;SDS011;6881;49.962;7.718;2023-07-13T14:42:07;2.30;;;1.00;;
3781;SDS011;6881;49.962;7.718;2023-07-13T14:44:34;1.70;;;1.10;;
3781;SDS011;6881;49.962;7.718;2023-07-13T14:47:00;1.20;;;1.10;;
3781;SDS011;6881;49.962;7.718;2023-07-13T14:49:32;2.33;;;1.40;;
3781;SDS011;6881;49.962;7.718;2023-07-13T14:52:09;1.80;;;1.57;;
3781;SDS011;6881;49.962;7.718;2023-07-13T14:54:37;2.30;;;1.10;;
3781;SDS011;6881;49.962;7.718;2023-07-13T14:57:13;1.60;;;1.47;;
3781;SDS011;6881;49.962;7.718;2023-07-13T14:59:39;2.90;;;1.17;;
3781;SDS011;6881;49.962;7.718;2023-07-13T15:02:48;1.67;;;1.27;;
3781;SDS011;6881;49.962;7.718;2023-07-13T15:04:57;1.97;;;1.37;;
3781;SDS011;6881;49.962;7.718;2023-07-13T15:07:23;2.00;;;1.30;;
3781;SDS011;6881;49.962;7.718;2023-07-13T15:09:49;2.03;;;1.00;;
3781;SDS011;6881;49.962;7.718;2023-07-13T15:12:15;3.07;;;1.80;;
3781;SDS011;6881;49.962;7.718;2023-07-13T15:14:41;2.50;;;1.40;;
3781;SDS011;6881;49.962;7.718;2023-07-13T15:17:15;1.27;;;1.00;;
3781;SDS011;6881;49.962;7.718;2023-07-13T15:19:48;2.63;;;1.20;;
3781;SDS011;6881;49.962;7.718;2023-07-13T15:22:14;1.80;;;1.27;;
3781;SDS011;6881;49.962;7.718;2023-07-13T15:24:39;3.57;;;1.20;;
3781;SDS011;6881;49.962;7.718;2023-07-13T15:27:08;3.13;;;1.23;;
3781;SDS011;6881;49.962;7.718;2023-07-13T15:29:36;1.63;;;1.20;;
3781;SDS011;6881;49.962;7.718;2023-07-13T15:32:02;1.63;;;1.50;;
3781;SDS011;6881;49.962;7.718;2023-07-13T15:34:27;1.83;;;1.00;;
3781;SDS011;6881;49.962;7.718;2023-07-13T15:36:52;3.50;;;1.17;;
3781;SDS011;6881;49.962;7.718;2023-07-13T15:39:18;2.20;;;1.23;;
3781;SDS011;6881;49.962;7.718;2023-07-13T15:41:43;1.63;;;1.40;;
3781;SDS011;6881;49.962;7.718;2023-07-13T15:46:51;2.43;;;1.27;;
3781;SDS011;6881;49.962;7.718;2023-07-13T15:49:16;2.60;;;1.37;;
3781;SDS011;6881;49.962;7.718;2023-07-13T15:51:42;3.33;;;1.23;;
3781;SDS011;6881;49.962;7.718;2023-07-13T15:54:08;1.60;;;1.10;;
3781;SDS011;6881;49.962;7.718;2023-07-13T15:56:37;1.90;;;1.70;;
3781;SDS011;6881;49.962;7.718;2023-07-13T15:59:05;1.73;;;1.20;;
3781;SDS011;6881;49.962;7.718;2023-07-13T16:01:30;1.53;;;1.23;;
3781;SDS011;6881;49.962;7.718;2023-07-13T16:03:57;1.63;;;1.10;;
3781;SDS011;6881;49.962;7.718;2023-07-13T16:06:27;1.37;;;1.07;;
3781;SDS011;6881;49.962;7.718;2023-07-13T16:08:54;2.80;;;1.23;;